Time;durP1;ratioP1;P1;durP2;ratioP2;P2;SDS_P1;SDS_P2;PMS_P1;PMS_P2;Temp;Humidity;BMP_temperature;BMP_pressure;BME280_temperature;BME280_humidity;BME280_pressure;Samples;Min_cycle;Max_cycle;Signal;HPM_P1;HPM_P2
2022/10/15 00:02:21;;;;;;;63.08;35.95;;;9.20;99.90;;;;;;5028528;28;20032;-56
2022/10/15 00:04:47;;;;;;;64.22;35.78;;;9.20;99.90;;;;;;5028815;28;20033;-57
2022/10/15 00:07:12;;;;;;;69.53;40.42;;;9.20;99.90;;;;;;5028715;28;20183;-57
2022/10/15 00:09:38;;;;;;;77.93;43.03;;;9.30;99.90;;;;;;5028132;28;20037;-57
2022/10/15 00:12:04;;;;;;;70.88;38.17;;;9.20;99.90;;;;;;5010649;28;20025;-57
2022/10/15 00:14:30;;;;;;;68.38;40.13;;;9.30;99.90;;;;;;5028685;28;20045;-57
2022/10/15 00:16:56;;;;;;;66.85;37.30;;;9.40;99.90;;;;;;5028692;28;20473;-59
2022/10/15 00:19:21;;;;;;;73.25;38.38;;;9.30;99.90;;;;;;5028476;28;20043;-57
2022/10/15 00:21:47;;;;;;;73.00;39.22;;;9.40;99.90;;;;;;5010448;28;20481;-58
2022/10/15 00:24:13;;;;;;;69.07;38.17;;;9.40;99.90;;;;;;5028433;28;20030;-55
2022/10/15 00:26:38;;;;;;;69.60;39.58;;;9.40;99.90;;;;;;5029160;28;20028;-57
2022/10/15 00:29:04;;;;;;;72.50;41.65;;;9.40;99.90;;;;;;5032402;28;20715;-56
2022/10/15 00:31:30;;;;;;;71.05;40.97;;;9.40;99.90;;;;;;5032601;28;20512;-57
2022/10/15 00:33:58;;;;;;;74.43;42.80;;;9.40;99.90;;;;;;5036504;28;20491;-57
2022/10/15 00:36:26;;;;;;;74.82;41.25;;;9.40;99.90;;;;;;5052104;28;20032;-57
2022/10/15 00:38:53;;;;;;;76.25;41.65;;;9.50;99.90;;;;;;5052268;28;20118;-57
2022/10/15 00:41:27;;;;;;;89.03;43.23;;;9.50;99.90;;;;;;5052034;28;20021;-57
2022/10/15 00:44:20;;;;;;;70.85;39.80;;;9.60;99.90;;;;;;5052064;28;20102;-56
2022/10/15 00:46:49;;;;;;;82.28;41.47;;;9.50;99.90;;;;;;5040993;28;20059;-58
2022/10/15 00:49:17;;;;;;;80.43;44.53;;;9.60;99.90;;;;;;5051783;28;20461;-58
2022/10/15 00:52:04;;;;;;;74.40;43.85;;;9.50;99.90;;;;;;5051746;28;20056;-56
2022/10/15 00:54:36;;;;;;;85.32;43.58;;;9.50;99.90;;;;;;5051944;28;20028;-56
2022/10/15 00:57:03;;;;;;;73.05;42.55;;;9.50;99.90;;;;;;5033774;28;20052;-58
2022/10/15 00:59:30;;;;;;;78.22;44.15;;;9.50;99.90;;;;;;5051717;28;20556;-56
2022/10/15 01:01:59;;;;;;;80.90;44.35;;;9.50;99.90;;;;;;5051658;28;20100;-57
2022/10/15 01:04:26;;;;;;;80.57;44.10;;;9.50;99.90;;;;;;5051584;28;20515;-58
2022/10/15 01:06:51;;;;;;;75.03;43.57;;;9.50;99.90;;;;;;5051989;28;20113;-57
2022/10/15 01:09:17;;;;;;;76.32;42.13;;;9.50;99.90;;;;;;5048930;28;21011;-58
2022/10/15 01:11:54;;;;;;;80.38;45.97;;;9.50;99.90;;;;;;5051627;28;20048;-57
2022/10/15 01:14:52;;;;;;;74.75;44.00;;;9.50;99.90;;;;;;5051675;28;20488;-56
2022/10/15 01:17:37;;;;;;;77.32;44.97;;;9.50;99.90;;;;;;5040895;28;20052;-54
2022/10/15 01:20:21;;;;;;;77.75;44.42;;;9.50;99.90;;;;;;5031824;28;20021;-57
2022/10/15 01:23:20;;;;;;;81.22;44.40;;;9.60;99.90;;;;;;5031767;28;20148;-58
2022/10/15 01:26:10;;;;;;;77.43;45.95;;;9.50;99.90;;;;;;5039279;28;20090;-57
2022/10/15 01:28:57;;;;;;;83.78;47.65;;;9.50;99.90;;;;;;5031686;28;20353;-57
2022/10/15 01:31:41;;;;;;;83.07;46.45;;;9.50;99.90;;;;;;5031487;28;20048;-56
2022/10/15 01:34:23;;;;;;;77.57;45.22;;;9.40;99.90;;;;;;5031883;28;20048;-57
2022/10/15 01:37:11;;;;;;;85.03;47.60;;;9.40;99.90;;;;;;5031488;28;20040;-57
2022/10/15 01:39:52;;;;;;;90.32;49.45;;;9.50;99.90;;;;;;5031013;28;20034;-57
2022/10/15 01:42:27;;;;;;;95.45;50.25;;;9.50;99.90;;;;;;5031712;28;20033;-56
2022/10/15 01:44:59;;;;;;;96.47;53.10;;;9.60;99.90;;;;;;5031619;28;20475;-58
2022/10/15 01:47:51;;;;;;;97.68;52.22;;;9.70;99.90;;;;;;5031504;28;20562;-57
2022/10/15 01:50:21;;;;;;;103.15;53.15;;;9.70;99.90;;;;;;5031043;28;20107;-57
2022/10/15 01:52:50;;;;;;;104.43;57.10;;;9.80;99.90;;;;;;5031510;28;20029;-58
2022/10/15 01:55:18;;;;;;;92.57;52.70;;;9.80;99.90;;;;;;5031076;28;20538;-55
2022/10/15 01:57:46;;;;;;;77.95;48.30;;;9.80;99.90;;;;;;5031209;28;20028;-57
2022/10/15 02:00:12;;;;;;;84.35;49.50;;;9.80;99.90;;;;;;5031118;28;20098;-58
2022/10/15 02:02:38;;;;;;;88.47;49.35;;;9.80;99.90;;;;;;5031159;28;20133;-56
2022/10/15 02:05:08;;;;;;;95.03;52.92;;;9.80;99.90;;;;;;5032488;28;20481;-58
2022/10/15 02:07:46;;;;;;;95.10;54.63;;;9.80;99.90;;;;;;5051061;28;20380;-57
2022/10/15 02:10:22;;;;;;;93.10;55.00;;;9.80;99.90;;;;;;5051169;28;20380;-56
2022/10/15 02:13:00;;;;;;;104.90;56.92;;;9.80;99.90;;;;;;5050823;28;20491;-57
2022/10/15 02:15:31;;;;;;;;;;;9.80;99.90;;;;;;5051263;28;20029;-58
2022/10/15 02:18:20;;;;;;;104.07;58.33;;;9.80;99.90;;;;;;5050697;28;19912;-57
2022/10/15 02:20:58;;;;;;;114.05;62.88;;;9.80;99.90;;;;;;5050529;28;20025;-58
2022/10/15 02:23:31;;;;;;;105.93;59.30;;;9.80;99.90;;;;;;5050741;28;20127;-57
2022/10/15 02:25:58;;;;;;;110.82;61.72;;;9.90;99.90;;;;;;5050609;28;20017;-58
2022/10/15 02:28:26;;;;;;;110.55;60.97;;;9.90;99.90;;;;;;5050470;28;20028;-56
2022/10/15 02:30:54;;;;;;;115.32;62.67;;;9.80;99.90;;;;;;5050228;28;20164;-57
2022/10/15 02:33:23;;;;;;;103.15;59.05;;;9.80;99.90;;;;;;5050730;28;20033;-58
2022/10/15 02:35:51;;;;;;;110.47;61.97;;;9.90;99.90;;;;;;5050160;28;20616;-57
2022/10/15 02:38:21;;;;;;;101.72;56.35;;;9.80;99.90;;;;;;5050099;28;20473;-56
2022/10/15 02:40:48;;;;;;;102.78;58.28;;;9.80;99.90;;;;;;5032344;28;20057;-57
2022/10/15 02:43:15;;;;;;;103.00;57.30;;;9.70;99.90;;;;;;5050262;28;20546;-57
2022/10/15 02:45:41;;;;;;;101.63;57.42;;;9.70;99.90;;;;;;5050391;28;20366;-59
2022/10/15 02:48:07;;;;;;;105.47;59.60;;;9.60;99.90;;;;;;5050324;28;20108;-59
2022/10/15 02:50:33;;;;;;;105.10;59.33;;;9.50;99.90;;;;;;5049000;28;20056;-56
2022/10/15 02:52:59;;;;;;;109.55;61.45;;;9.60;99.90;;;;;;5049897;28;20036;-57
2022/10/15 02:55:25;;;;;;;112.90;60.23;;;9.50;99.90;;;;;;5050055;28;20472;-56
2022/10/15 02:57:51;;;;;;;112.25;59.78;;;9.50;99.90;;;;;;5049695;28;20274;-55
2022/10/15 03:00:17;;;;;;;111.18;61.38;;;9.60;99.90;;;;;;5049876;28;20065;-56
2022/10/15 03:02:43;;;;;;;105.40;58.00;;;9.60;99.90;;;;;;5049719;28;20021;-57
2022/10/15 03:05:09;;;;;;;113.22;61.97;;;9.60;99.90;;;;;;5048090;28;20028;-55
2022/10/15 03:07:35;;;;;;;104.28;58.33;;;9.50;99.90;;;;;;5029962;28;20096;-55
2022/10/15 03:10:01;;;;;;;102.35;60.03;;;9.60;99.90;;;;;;5029605;28;20117;-56
2022/10/15 03:12:27;;;;;;;110.97;61.20;;;9.50;99.90;;;;;;5029786;28;20492;-55
2022/10/15 03:14:52;;;;;;;109.88;61.42;;;9.50;99.90;;;;;;5029867;28;20029;-56
2022/10/15 03:17:18;;;;;;;96.72;57.40;;;9.50;99.90;;;;;;5029620;28;20033;-56
2022/10/15 03:19:44;;;;;;;95.88;58.25;;;9.50;99.90;;;;;;5029754;28;20132;-56
2022/10/15 03:22:09;;;;;;;101.88;57.55;;;9.50;99.90;;;;;;5028274;28;20376;-56
2022/10/15 03:24:35;;;;;;;101.85;55.03;;;9.50;99.90;;;;;;5029535;28;20778;-55
2022/10/15 03:27:01;;;;;;;100.10;57.03;;;9.50;99.90;;;;;;5029634;28;20036;-56
2022/10/15 03:29:26;;;;;;;98.60;55.25;;;9.50;99.90;;;;;;5029236;28;20624;-55
2022/10/15 03:31:52;;;;;;;95.60;56.30;;;9.50;99.90;;;;;;5029334;28;20080;-56
2022/10/15 03:34:18;;;;;;;97.53;56.25;;;9.50;99.90;;;;;;5029690;28;20041;-55
2022/10/15 03:36:43;;;;;;;101.43;54.28;;;9.50;99.90;;;;;;5029387;28;20037;-55
2022/10/15 03:39:11;;;;;;;92.82;54.38;;;9.50;99.90;;;;;;5029382;28;20155;-55
2022/10/15 03:41:37;;;;;;;91.30;53.15;;;9.50;99.90;;;;;;5029609;28;20059;-54
2022/10/15 03:44:04;;;;;;;91.82;54.17;;;9.50;99.90;;;;;;5029228;28;20136;-55
2022/10/15 03:46:31;;;;;;;86.57;51.35;;;9.50;99.90;;;;;;5029163;28;20112;-55
2022/10/15 03:48:57;;;;;;;85.10;51.60;;;9.50;99.90;;;;;;5029349;28;20036;-54
2022/10/15 03:51:22;;;;;;;88.72;49.40;;;9.50;99.90;;;;;;5029055;28;20069;-56
2022/10/15 03:53:48;;;;;;;86.22;52.05;;;9.40;99.90;;;;;;5029319;28;20277;-56
2022/10/15 03:56:14;;;;;;;99.28;52.45;;;9.40;99.90;;;;;;5044522;28;20037;-58
2022/10/15 03:58:40;;;;;;;83.25;49.65;;;9.30;99.90;;;;;;5028926;28;20185;-57
2022/10/15 04:01:14;;;;;;;89.63;52.13;;;9.30;99.90;;;;;;5028839;28;20029;-56
2022/10/15 04:03:40;;;;;;;94.00;53.10;;;9.20;99.90;;;;;;5027710;28;20029;-56
2022/10/15 04:06:07;;;;;;;94.85;52.13;;;9.20;99.90;;;;;;5038151;28;20506;-57
2022/10/15 04:08:33;;;;;;;85.40;50.30;;;9.20;99.90;;;;;;5049097;28;20029;-56
2022/10/15 04:10:59;;;;;;;86.93;50.85;;;9.20;99.90;;;;;;5048953;28;20037;-56
2022/10/15 04:13:26;;;;;;;90.75;51.63;;;9.20;99.90;;;;;;5048792;28;20483;-55
2022/10/15 04:15:52;;;;;;;92.00;50.20;;;9.30;99.90;;;;;;5049178;28;20029;-55
2022/10/15 04:18:20;;;;;;;91.40;52.47;;;9.30;99.90;;;;;;5048989;28;20387;-56
2022/10/15 04:20:49;;;;;;;92.43;51.70;;;9.30;99.90;;;;;;5049137;28;20037;-57
2022/10/15 04:23:15;;;;;;;88.43;51.42;;;9.30;99.90;;;;;;5048722;28;20025;-57
2022/10/15 04:25:41;;;;;;;100.18;52.65;;;9.30;99.90;;;;;;5049052;28;20083;-55
2022/10/15 04:28:07;;;;;;;87.30;50.42;;;9.30;99.90;;;;;;5048773;28;20025;-56
2022/10/15 04:30:33;;;;;;;98.47;54.38;;;9.30;99.90;;;;;;5048869;28;20064;-57
2022/10/15 04:32:59;;;;;;;77.90;46.25;;;9.40;99.90;;;;;;5048886;28;20029;-56
2022/10/15 04:35:24;;;;;;;82.75;47.60;;;9.50;99.90;;;;;;5048836;28;20036;-55
2022/10/15 04:37:50;;;;;;;74.10;43.88;;;9.60;99.90;;;;;;5048695;28;20029;-56
2022/10/15 04:40:17;;;;;;;86.88;45.92;;;9.70;99.90;;;;;;5048778;28;20075;-56
2022/10/15 04:42:42;;;;;;;80.20;44.03;;;9.70;99.90;;;;;;5048748;28;20021;-56
2022/10/15 04:45:08;;;;;;;76.80;42.72;;;9.80;99.90;;;;;;5048689;28;20090;-56
2022/10/15 04:47:34;;;;;;;78.57;43.28;;;9.90;99.90;;;;;;5048640;28;20025;-57
2022/10/15 04:50:00;;;;;;;73.78;42.03;;;10.10;99.90;;;;;;5048313;28;20056;-56
2022/10/15 04:52:25;;;;;;;72.60;41.65;;;10.10;99.90;;;;;;5048605;28;20036;-56
2022/10/15 04:54:51;;;;;;;76.28;43.45;;;10.20;99.90;;;;;;5048502;28;20040;-56
2022/10/15 04:57:16;;;;;;;75.25;46.35;;;10.20;99.90;;;;;;5048333;28;20523;-57
2022/10/15 04:59:43;;;;;;;81.70;48.85;;;10.10;99.90;;;;;;5048594;28;20411;-56
2022/10/15 05:02:10;;;;;;;68.88;41.17;;;10.00;99.90;;;;;;5048547;28;20060;-55
2022/10/15 05:04:35;;;;;;;70.03;42.30;;;10.10;99.90;;;;;;5047314;28;20033;-58
2022/10/15 05:07:01;;;;;;;78.93;44.22;;;10.20;99.90;;;;;;5031884;28;20030;-56
2022/10/15 05:09:27;;;;;;;76.45;43.50;;;10.30;99.90;;;;;;5028396;28;20457;-55
2022/10/15 05:11:54;;;;;;;71.72;44.65;;;10.30;99.90;;;;;;5028194;28;20073;-54
2022/10/15 05:14:20;;;;;;;63.60;40.47;;;10.30;99.90;;;;;;5030187;28;20500;-56
2022/10/15 05:16:46;;;;;;;75.43;45.92;;;10.30;99.90;;;;;;5031960;28;20087;-57
2022/10/15 05:19:11;;;;;;;68.80;40.40;;;10.30;99.90;;;;;;5031902;28;20107;-56
2022/10/15 05:21:38;;;;;;;70.72;41.70;;;10.30;99.90;;;;;;5030374;28;20021;-56
2022/10/15 05:24:04;;;;;;;71.57;45.42;;;10.30;99.90;;;;;;5031991;28;20048;-56
2022/10/15 05:26:31;;;;;;;78.82;45.78;;;10.20;99.90;;;;;;5031707;28;20038;-55
2022/10/15 05:28:58;;;;;;;77.40;45.47;;;10.20;99.90;;;;;;5031729;28;20124;-56
2022/10/15 05:31:25;;;;;;;76.03;48.70;;;10.10;99.90;;;;;;5031745;28;20041;-57
2022/10/15 05:33:52;;;;;;;80.50;49.72;;;10.10;99.90;;;;;;5031529;28;20108;-57
2022/10/15 05:36:36;;;;;;;84.03;48.30;;;10.00;99.90;;;;;;5031859;28;20447;-55
2022/10/15 05:39:09;;;;;;;90.03;52.05;;;10.10;99.90;;;;;;5031468;28;20422;-57
2022/10/15 05:41:34;;;;;;;93.00;54.30;;;10.10;99.90;;;;;;5046617;28;20128;-58
2022/10/15 05:44:00;;;;;;;88.50;54.33;;;10.00;99.90;;;;;;5031164;28;20532;-57
2022/10/15 05:46:26;;;;;;;108.53;58.22;;;10.00;99.90;;;;;;5031355;28;20040;-55
2022/10/15 05:48:56;;;;;;;104.35;59.65;;;10.10;99.90;;;;;;5031032;28;20481;-56
2022/10/15 05:51:23;;;;;;;104.97;63.05;;;10.10;99.90;;;;;;5030999;28;20095;-55
2022/10/15 05:53:52;;;;;;;112.80;65.10;;;10.20;99.90;;;;;;5031450;28;20017;-56
2022/10/15 05:56:18;;;;;;;112.18;65.82;;;10.20;99.90;;;;;;5031359;28;20037;-57
2022/10/15 05:58:44;;;;;;;113.50;67.57;;;10.20;99.90;;;;;;5030951;28;20036;-57
2022/10/15 06:01:11;;;;;;;128.63;73.50;;;10.20;99.90;;;;;;5031127;28;20121;-57
2022/10/15 06:03:39;;;;;;;117.32;71.93;;;10.20;99.90;;;;;;5031260;28;20030;-55
2022/10/15 06:06:11;;;;;;;124.55;74.53;;;10.30;99.90;;;;;;5039090;28;20112;-54
2022/10/15 06:08:37;;;;;;;113.13;71.03;;;10.30;99.90;;;;;;5050788;28;20029;-57
2022/10/15 06:11:03;;;;;;;105.13;63.78;;;10.30;99.90;;;;;;5051065;28;20048;-58
2022/10/15 06:13:30;;;;;;;107.07;62.72;;;10.40;99.90;;;;;;5050575;28;20067;-57
2022/10/15 06:15:56;;;;;;;103.60;61.35;;;10.40;99.90;;;;;;5050865;28;20037;-55
2022/10/15 06:18:21;;;;;;;99.30;58.92;;;10.50;99.90;;;;;;5041647;28;20034;-58
2022/10/15 06:20:51;;;;;;;103.28;61.70;;;10.60;99.90;;;;;;5041209;28;20017;-57
2022/10/15 06:23:17;;;;;;;97.70;57.58;;;10.70;99.90;;;;;;5038553;28;20032;-56
2022/10/15 06:25:43;;;;;;;87.82;51.75;;;10.80;99.90;;;;;;5042812;28;20033;-56
2022/10/15 06:28:09;;;;;;;90.53;53.03;;;10.80;99.90;;;;;;5047891;28;20837;-57
2022/10/15 06:30:35;;;;;;;88.38;51.13;;;10.90;99.90;;;;;;5048985;28;20041;-58
2022/10/15 06:33:00;;;;;;;89.20;53.58;;;10.90;99.90;;;;;;5041918;28;20021;-56
2022/10/15 06:35:29;;;;;;;95.82;55.35;;;11.00;99.90;;;;;;5040692;28;20030;-57
2022/10/15 06:37:55;;;;;;;91.32;51.70;;;11.10;99.90;;;;;;5032874;28;20067;-56
2022/10/15 06:40:21;;;;;;;90.90;49.88;;;11.20;99.90;;;;;;5030092;28;20025;-55
2022/10/15 06:42:46;;;;;;;88.43;50.85;;;11.30;99.90;;;;;;5030084;28;20027;-58
2022/10/15 06:45:13;;;;;;;80.32;44.13;;;11.30;99.90;;;;;;5040323;28;20087;-57
2022/10/15 06:47:41;;;;;;;76.93;46.17;;;11.50;99.90;;;;;;5048090;28;20074;-56
2022/10/15 06:50:08;;;;;;;59.63;38.45;;;11.60;99.90;;;;;;5049638;28;20048;-56
2022/10/15 06:52:34;;;;;;;65.90;42.07;;;11.80;99.90;;;;;;5048546;28;20035;-57
2022/10/15 06:54:59;;;;;;;67.25;41.03;;;11.90;99.90;;;;;;5043619;28;20272;-56
2022/10/15 06:57:27;;;;;;;76.88;44.88;;;12.00;99.90;;;;;;5049472;28;20033;-57
2022/10/15 06:59:52;;;;;;;68.82;41.35;;;12.10;99.90;;;;;;5049451;28;20036;-57
2022/10/15 07:02:18;;;;;;;70.38;40.97;;;12.20;99.90;;;;;;5048826;28;20033;-56
2022/10/15 07:04:45;;;;;;;69.68;41.30;;;12.20;99.90;;;;;;5037579;28;20032;-55
2022/10/15 07:07:11;;;;;;;61.03;39.07;;;12.30;99.90;;;;;;5037754;28;20661;-56
2022/10/15 07:09:37;;;;;;;67.50;40.42;;;12.40;99.90;;;;;;5028954;28;20315;-56
2022/10/15 07:12:03;;;;;;;61.17;38.25;;;12.50;99.90;;;;;;5028507;28;20104;-56
2022/10/15 07:14:29;;;;;;;54.03;34.45;;;12.60;99.90;;;;;;5028440;28;20037;-55
2022/10/15 07:16:54;;;;;;;54.03;35.22;;;12.70;99.90;;;;;;5028953;28;20029;-55
2022/10/15 07:19:20;;;;;;;48.88;32.00;;;12.80;99.90;;;;;;5029491;28;20024;-55
2022/10/15 07:21:45;;;;;;;46.42;30.40;;;13.00;99.90;;;;;;5029416;28;20423;-55
2022/10/15 07:24:11;;;;;;;43.55;27.50;;;13.20;99.90;;;;;;5028708;28;20033;-56
2022/10/15 07:26:37;;;;;;;36.03;25.33;;;13.40;99.90;;;;;;5027609;28;20072;-56
2022/10/15 07:29:03;;;;;;;39.17;24.67;;;13.60;99.90;;;;;;5027537;28;20109;-57
2022/10/15 07:31:29;;;;;;;37.42;24.92;;;13.60;99.90;;;;;;5027223;28;20041;-56
2022/10/15 07:33:54;;;;;;;35.55;25.85;;;13.70;99.90;;;;;;5027393;28;20029;-55
2022/10/15 07:36:20;;;;;;;30.42;22.50;;;13.80;99.90;;;;;;5046730;28;20071;-55
2022/10/15 07:38:46;;;;;;;36.33;24.00;;;13.90;99.90;;;;;;5048109;28;20115;-55
2022/10/15 07:41:12;;;;;;;31.58;22.50;;;13.90;99.90;;;;;;5047638;28;20035;-56
2022/10/15 07:43:38;;;;;;;32.15;22.15;;;14.10;99.90;;;;;;5028862;28;20040;-56
2022/10/15 07:46:04;;;;;;;34.40;22.80;;;14.00;99.90;;;;;;5028687;28;20029;-55
2022/10/15 07:48:30;;;;;;;35.70;21.70;;;14.00;99.90;;;;;;5029075;28;20057;-55
2022/10/15 07:51:02;;;;;;;32.97;22.75;;;14.10;99.90;;;;;;5027832;28;20076;-56
2022/10/15 07:53:28;;;;;;;30.85;20.95;;;14.20;99.90;;;;;;5028239;28;20025;-54
2022/10/15 07:56:01;;;;;;;32.60;21.05;;;14.20;99.90;;;;;;5028470;28;20044;-55
2022/10/15 07:58:29;;;;;;;29.45;21.30;;;14.30;99.90;;;;;;5027137;28;20029;-55
2022/10/15 08:00:55;;;;;;;27.60;18.20;;;14.40;99.90;;;;;;5028162;28;20099;-55
2022/10/15 08:03:21;;;;;;;29.23;19.25;;;14.50;99.90;;;;;;5027956;28;20029;-55
2022/10/15 08:05:51;;;;;;;29.73;19.95;;;14.50;99.90;;;;;;5028784;28;20089;-55
2022/10/15 08:08:18;;;;;;;30.35;19.10;;;14.50;99.90;;;;;;5041963;28;20041;-56
2022/10/15 08:10:44;;;;;;;29.15;19.98;;;14.60;99.90;;;;;;5046834;28;20480;-55
2022/10/15 08:13:10;;;;;;;32.10;20.30;;;14.60;99.90;;;;;;5047367;28;20040;-56
2022/10/15 08:15:39;;;;;;;30.42;19.40;;;14.60;99.90;;;;;;5048813;28;20029;-56
2022/10/15 08:18:05;;;;;;;29.00;19.92;;;14.60;99.90;;;;;;5048923;28;20025;-54
2022/10/15 08:20:30;;;;;;;25.65;19.35;;;14.70;99.90;;;;;;5041495;28;20473;-56
2022/10/15 08:22:56;;;;;;;30.95;18.88;;;14.70;99.90;;;;;;5028256;28;20060;-56
2022/10/15 08:25:22;;;;;;;30.20;21.02;;;14.70;99.90;;;;;;5028484;28;20121;-55
2022/10/15 08:27:47;;;;;;;29.00;19.52;;;14.70;99.90;;;;;;5039063;28;20039;-55
2022/10/15 08:30:13;;;;;;;32.30;20.00;;;14.70;99.90;;;;;;5059282;28;20381;-55
2022/10/15 08:32:39;;;;;;;29.33;17.92;;;14.70;99.90;;;;;;5068488;28;20540;-55
2022/10/15 08:35:05;;;;;;;33.67;19.40;;;14.80;99.90;;;;;;5039631;28;20037;-55
2022/10/15 08:37:30;;;;;;;25.58;18.98;;;14.80;99.90;;;;;;5028576;28;20036;-55
2022/10/15 08:39:56;;;;;;;31.67;17.83;;;14.90;99.90;;;;;;5031884;28;20028;-54
2022/10/15 08:42:34;;;;;;;26.65;18.33;;;15.00;99.90;;;;;;5068401;28;20423;-55
2022/10/15 08:45:24;;;;;;;26.58;16.80;;;15.10;99.90;;;;;;5040400;28;20374;-54
2022/10/15 08:47:51;;;;;;;27.40;17.30;;;15.20;99.90;;;;;;5044465;28;20037;-54
2022/10/15 08:50:17;;;;;;;;;;;15.30;99.90;;;;;;5048951;28;20071;-55
2022/10/15 08:52:45;;;;;;;29.90;16.05;;;15.40;99.90;;;;;;5050435;28;20313;-55
2022/10/15 08:55:13;;;;;;;25.25;15.38;;;15.40;99.90;;;;;;5051790;28;20057;-53
2022/10/15 08:58:12;;;;;;;24.42;15.00;;;15.50;99.90;;;;;;5049023;28;20771;-55
2022/10/15 09:00:42;;;;;;;26.85;16.00;;;15.60;99.90;;;;;;5060118;28;20144;-55
2022/10/15 09:03:22;;;;;;;24.10;15.40;;;15.60;99.90;;;;;;5048032;28;20048;-55
2022/10/15 09:06:13;;;;;;;31.50;15.77;;;15.70;99.90;;;;;;5040166;28;20060;-55
2022/10/15 09:08:41;;;;;;;23.92;14.25;;;15.80;99.90;;;;;;5035078;28;20021;-54
2022/10/15 09:11:20;;;;;;;24.33;15.98;;;15.90;99.90;;;;;;5031497;28;20049;-54
2022/10/15 09:13:47;;;;;;;25.73;16.20;;;16.00;99.90;;;;;;5046065;28;20037;-56
2022/10/15 09:16:18;;;;;;;24.35;15.15;;;16.00;99.90;;;;;;5040223;28;20070;-57
2022/10/15 09:18:48;;;;;;;24.65;14.57;;;16.20;99.90;;;;;;5041331;28;20472;-55
2022/10/15 09:21:15;;;;;;;21.65;14.55;;;16.30;99.90;;;;;;5051100;28;20059;-55
2022/10/15 09:23:42;;;;;;;23.48;14.07;;;16.30;99.90;;;;;;5038811;28;20519;-54
2022/10/15 09:26:10;;;;;;;25.77;15.68;;;16.40;99.90;;;;;;5041101;28;20047;-56
2022/10/15 09:29:00;;;;;;;20.95;13.38;;;16.40;99.90;;;;;;5038852;28;20029;-54
2022/10/15 09:31:37;;;;;;;23.88;13.63;;;16.40;99.90;;;;;;5038340;28;20038;-55
2022/10/15 09:34:21;;;;;;;21.07;13.33;;;16.40;99.90;;;;;;5041260;28;20047;-55
2022/10/15 09:36:55;;;;;;;20.77;12.52;;;16.40;99.90;;;;;;5040460;28;20256;-56
2022/10/15 09:40:14;;;;;;;18.23;12.10;;;16.50;99.90;;;;;;5040989;28;20032;-57
2022/10/15 09:42:41;;;;;;;16.55;11.65;;;16.50;99.90;;;;;;4986228;28;20054;-57
2022/10/15 09:45:14;;;;;;;18.83;11.95;;;16.60;99.90;;;;;;5043124;28;20045;-54
2022/10/15 09:47:41;;;;;;;19.83;11.10;;;16.50;99.90;;;;;;5047837;28;20040;-54
2022/10/15 09:50:10;;;;;;;17.45;11.27;;;16.60;99.90;;;;;;5044612;28;20037;-56
2022/10/15 09:53:04;;;;;;;16.35;10.95;;;16.60;99.90;;;;;;5048774;28;20024;-54
2022/10/15 09:55:33;;;;;;;18.42;11.15;;;16.60;99.90;;;;;;5040629;28;20029;-54
2022/10/15 09:58:24;;;;;;;16.90;10.68;;;16.60;99.90;;;;;;5047698;28;20490;-54
2022/10/15 10:00:54;;;;;;;18.88;10.48;;;16.70;99.90;;;;;;5030484;28;20072;-55
2022/10/15 10:03:23;;;;;;;19.63;10.30;;;16.80;99.90;;;;;;5031234;28;20396;-55
2022/10/15 10:05:49;;;;;;;18.50;10.20;;;16.80;99.90;;;;;;5045987;28;20500;-60
2022/10/15 10:08:15;;;;;;;16.65;9.32;;;16.80;99.90;;;;;;5043668;28;20035;-55
2022/10/15 10:10:41;;;;;;;19.30;10.38;;;16.80;99.90;;;;;;5041012;28;20127;-55
2022/10/15 10:13:27;;;;;;;25.53;10.77;;;16.80;99.90;;;;;;5038423;28;20021;-54
2022/10/15 10:15:55;;;;;;;15.13;10.60;;;16.70;99.90;;;;;;5030303;28;20059;-56
2022/10/15 10:18:24;;;;;;;18.23;9.40;;;16.70;99.90;;;;;;5041509;28;20028;-55
2022/10/15 10:21:00;;;;;;;18.70;10.02;;;16.60;99.90;;;;;;5040178;28;20025;-55
2022/10/15 10:23:38;;;;;;;17.02;10.48;;;16.60;99.90;;;;;;5039242;28;20129;-55
2022/10/15 10:26:08;;;;;;;;;;;16.60;99.90;;;;;;5039354;28;20067;-55
2022/10/15 10:28:35;;;;;;;23.63;10.05;;;16.50;99.90;;;;;;5039669;28;19905;-55
2022/10/15 10:31:09;;;;;;;14.85;8.77;;;16.60;99.90;;;;;;5034305;28;20081;-56
2022/10/15 10:33:49;;;;;;;16.15;10.13;;;16.60;99.90;;;;;;5030644;28;20021;-55
2022/10/15 10:36:26;;;;;;;16.23;9.38;;;16.60;99.90;;;;;;5030264;28;20072;-55
2022/10/15 10:39:17;;;;;;;18.08;10.27;;;16.60;99.90;;;;;;5030063;28;20116;-54
2022/10/15 10:41:55;;;;;;;16.00;9.73;;;16.60;99.90;;;;;;5025435;28;20029;-55
2022/10/15 10:44:29;;;;;;;18.50;10.27;;;16.60;99.90;;;;;;5030069;28;20507;-55
2022/10/15 10:47:03;;;;;;;21.17;10.10;;;16.60;99.90;;;;;;5030143;28;20033;-54
2022/10/15 10:49:37;;;;;;;17.75;9.90;;;16.70;99.90;;;;;;5030126;28;20032;-55
2022/10/15 10:52:04;;;;;;;33.40;20.00;;;16.70;99.90;;;;;;5011897;28;20520;-54
2022/10/15 10:54:32;;;;;;;18.92;12.52;;;16.70;99.90;;;;;;5047667;28;20032;-55
2022/10/15 10:56:58;;;;;;;;;;;16.80;99.90;;;;;;5047317;28;20044;-55
2022/10/15 10:59:36;;;;;;;19.63;9.38;;;16.80;99.90;;;;;;5048537;28;19908;-55
2022/10/15 11:02:05;;;;;;;17.40;9.02;;;16.80;99.90;;;;;;5011059;28;20496;-56
2022/10/15 11:04:33;;;;;;;17.02;9.23;;;16.80;99.90;;;;;;5034412;28;20063;-54
2022/10/15 11:07:24;;;;;;;15.15;9.10;;;16.80;99.90;;;;;;5047703;28;20567;-54
2022/10/15 11:09:49;;;;;;;16.83;9.63;;;16.80;99.90;;;;;;5048779;28;20025;-54
2022/10/15 11:12:52;;;;;;;18.05;9.38;;;16.80;99.90;;;;;;5047702;28;20051;-55
2022/10/15 11:15:43;;;;;;;15.38;9.80;;;16.90;99.90;;;;;;5047540;28;20021;-55
2022/10/15 11:18:30;;;;;;;13.60;7.80;;;16.90;99.90;;;;;;5047864;28;20075;-56
2022/10/15 11:20:56;;;;;;;15.40;8.98;;;16.90;99.90;;;;;;5047824;28;20400;-56
2022/10/15 11:23:25;;;;;;;16.17;8.38;;;17.00;99.90;;;;;;5046954;28;20017;-56
2022/10/15 11:26:10;;;;;;;18.70;9.55;;;17.00;99.90;;;;;;5047242;28;20024;-55
2022/10/15 11:28:52;;;;;;;14.63;7.53;;;17.00;99.90;;;;;;5048196;28;20025;-56
2022/10/15 11:31:24;;;;;;;11.07;7.05;;;17.00;99.90;;;;;;5048501;28;20552;-55
2022/10/15 11:34:22;;;;;;;13.80;7.20;;;17.00;99.90;;;;;;5048568;28;20515;-56
2022/10/15 11:37:09;;;;;;;13.82;8.98;;;17.00;99.90;;;;;;5048999;28;20021;-55
2022/10/15 11:40:01;;;;;;;13.68;8.00;;;16.90;99.90;;;;;;5049157;28;20032;-56
2022/10/15 11:42:38;;;;;;;13.43;8.07;;;16.90;99.90;;;;;;5048947;28;20463;-55
2022/10/15 11:45:25;;;;;;;12.37;8.07;;;16.80;99.90;;;;;;5048991;28;20040;-57
2022/10/15 11:48:01;;;;;;;12.38;7.65;;;16.80;99.90;;;;;;5048653;28;20063;-56
2022/10/15 11:50:33;;;;;;;13.82;7.60;;;16.80;99.90;;;;;;5048737;28;20080;-56
2022/10/15 11:53:08;;;;;;;14.70;8.82;;;16.80;99.90;;;;;;5048960;28;20044;-55
2022/10/15 11:55:49;;;;;;;13.32;7.68;;;16.80;99.90;;;;;;5048917;28;20629;-56
2022/10/15 11:58:43;;;;;;;15.32;8.07;;;16.80;99.90;;;;;;5048673;28;20036;-55
2022/10/15 12:01:18;;;;;;;16.73;9.70;;;16.80;99.90;;;;;;5048563;28;20033;-57
2022/10/15 12:04:09;;;;;;;14.50;9.20;;;16.80;99.90;;;;;;5048856;28;20029;-55
2022/10/15 12:06:41;;;;;;;15.90;8.18;;;16.70;99.90;;;;;;5047734;28;20076;-56
2022/10/15 12:09:26;;;;;;;16.63;9.00;;;16.70;99.90;;;;;;5028605;28;20133;-55
2022/10/15 12:12:03;;;;;;;15.13;8.90;;;16.70;99.90;;;;;;5027242;28;20448;-56
2022/10/15 12:14:46;;;;;;;19.08;9.55;;;16.70;99.90;;;;;;5032867;28;20021;-56
2022/10/15 12:17:43;;;;;;;24.17;11.63;;;16.70;99.90;;;;;;5048522;28;20032;-56
2022/10/15 12:20:14;;;;;;;19.75;9.02;;;16.70;99.90;;;;;;5036006;28;20116;-56
2022/10/15 12:23:01;;;;;;;16.88;8.50;;;16.70;99.90;;;;;;5043654;28;20029;-55
2022/10/15 12:25:32;;;;;;;16.42;8.45;;;16.80;99.90;;;;;;5032620;28;20033;-54
2022/10/15 12:28:14;;;;;;;16.80;8.85;;;16.90;99.90;;;;;;5040797;28;20124;-56
2022/10/15 12:30:41;;;;;;;13.50;8.93;;;17.00;99.90;;;;;;5052633;28;20091;-56
2022/10/15 12:33:53;;;;;;;22.50;9.95;;;17.10;99.90;;;;;;5052289;28;20021;-57
2022/10/15 12:36:29;;;;;;;15.60;9.45;;;17.10;99.90;;;;;;5016236;28;20049;-55
2022/10/15 12:39:04;;;;;;;18.73;11.15;;;17.20;99.90;;;;;;5052442;28;20115;-56
2022/10/15 12:41:34;;;;;;;18.95;9.63;;;17.30;99.90;;;;;;5035733;28;20463;-56
2022/10/15 12:44:15;;;;;;;13.90;9.05;;;17.40;99.90;;;;;;5032344;28;20044;-57
2022/10/15 12:46:41;;;;;;;14.55;9.13;;;17.30;99.90;;;;;;5032232;28;20109;-56
2022/10/15 12:49:25;;;;;;;14.38;8.88;;;17.40;99.90;;;;;;5032362;28;20080;-56
2022/10/15 12:51:55;;;;;;;17.00;8.40;;;17.40;99.90;;;;;;5031992;28;20084;-56
2022/10/15 12:54:40;;;;;;;16.85;9.10;;;17.40;99.90;;;;;;5032090;28;20026;-56